createdAt,value
2018-05-10T00:00:44.111Z,2.00
2018-05-10T00:03:14.547Z,1.73
2018-05-10T00:05:44.431Z,1.77
2018-05-10T00:08:14.179Z,1.83
2018-05-10T00:10:44.168Z,1.90
2018-05-10T00:13:13.940Z,1.07
2018-05-10T00:15:44.408Z,0.33
2018-05-10T00:18:14.177Z,0.53
2018-05-10T00:20:44.650Z,0.47
2018-05-10T00:23:14.446Z,2.20
2018-05-10T00:25:44.171Z,0.97
2018-05-10T00:28:14.767Z,0.90
2018-05-10T00:30:45.256Z,0.97
2018-05-10T00:33:15.040Z,1.07
2018-05-10T00:35:44.756Z,1.40
2018-05-10T00:38:14.536Z,1.50
2018-05-10T00:40:45.050Z,1.73
2018-05-10T00:43:14.782Z,1.60
2018-05-10T00:45:45.308Z,1.07
2018-05-10T00:48:15.061Z,0.67
2018-05-10T00:50:44.827Z,0.67
2018-05-10T00:53:14.585Z,2.30
2018-05-10T00:55:44.328Z,0.50
2018-05-10T00:58:14.064Z,0.60
2018-05-10T01:00:43.836Z,0.27
2018-05-10T01:03:13.580Z,0.73
2018-05-10T01:05:44.044Z,0.83
2018-05-10T01:08:13.836Z,0.63
2018-05-10T01:10:44.447Z,0.37
2018-05-10T01:13:14.282Z,1.77
2018-05-10T01:15:44.070Z,2.53
2018-05-10T01:18:13.800Z,0.30
2018-05-10T01:20:44.618Z,1.00
2018-05-10T01:23:15.274Z,0.60
2018-05-10T01:25:52.877Z,0.97
2018-05-10T01:28:35.623Z,0.40
2018-05-10T01:31:20.611Z,1.53
2018-05-10T01:33:50.344Z,0.87
2018-05-10T01:36:20.828Z,1.03
2018-05-10T01:38:50.552Z,0.50
2018-05-10T01:41:20.247Z,4.87
2018-05-10T01:43:50.041Z,0.97
2018-05-10T01:46:19.785Z,0.90
2018-05-10T01:48:49.796Z,0.60
2018-05-10T01:51:19.542Z,2.60
2018-05-10T01:53:49.346Z,0.30
2018-05-10T01:56:20.616Z,1.57
2018-05-10T01:58:50.358Z,1.00
2018-05-10T02:01:20.011Z,4.10
2018-05-10T02:03:49.834Z,1.50
2018-05-10T02:06:19.624Z,0.97
2018-05-10T02:08:49.432Z,2.47
2018-05-10T02:11:19.216Z,2.60
2018-05-10T02:13:49.007Z,0.40
2018-05-10T02:16:19.454Z,0.53
2018-05-10T02:18:49.205Z,0.50
2018-05-10T02:21:19.711Z,0.80
2018-05-10T02:23:56.418Z,0.40
2018-05-10T02:26:38.643Z,1.77
2018-05-10T02:29:08.629Z,1.60
2018-05-10T02:31:39.035Z,1.23
2018-05-10T02:34:08.880Z,2.27
2018-05-10T02:36:39.148Z,0.40
2018-05-10T02:39:09.439Z,0.30
2018-05-10T02:41:39.867Z,2.23
2018-05-10T02:44:10.830Z,1.53
2018-05-10T02:46:40.564Z,0.80
2018-05-10T02:49:10.310Z,1.40
2018-05-10T02:51:40.165Z,1.67
2018-05-10T02:54:10.710Z,3.13
2018-05-10T02:56:40.478Z,2.53
2018-05-10T02:59:10.476Z,1.43
2018-05-10T03:01:40.353Z,1.83
2018-05-10T03:04:10.072Z,1.33
2018-05-10T03:06:39.845Z,2.73
2018-05-10T03:09:10.357Z,3.37
2018-05-10T03:11:40.994Z,1.13
2018-05-10T03:14:10.823Z,2.43
2018-05-10T03:16:41.342Z,1.47
2018-05-10T03:19:11.896Z,3.47
2018-05-10T03:21:41.877Z,2.33
2018-05-10T03:24:11.751Z,2.13
2018-05-10T03:26:41.555Z,2.43
2018-05-10T03:29:11.445Z,0.80
2018-05-10T03:31:41.175Z,4.17
2018-05-10T03:34:10.908Z,3.27
2018-05-10T03:36:40.783Z,1.37
2018-05-10T03:39:10.506Z,2.93
2018-05-10T03:41:40.271Z,4.23
2018-05-10T03:44:17.865Z,2.43
2018-05-10T03:46:56.219Z,2.33
2018-05-10T03:49:26.717Z,3.03
2018-05-10T03:51:56.715Z,1.50
2018-05-10T03:54:26.478Z,1.63
2018-05-10T03:56:57.049Z,3.37
2018-05-10T03:59:26.826Z,2.03
2018-05-10T04:01:57.501Z,1.47
2018-05-10T04:04:38.487Z,1.37
2018-05-10T04:07:19.532Z,0.77
2018-05-10T04:10:01.261Z,1.10
2018-05-10T04:12:32.079Z,0.70
2018-05-10T04:15:02.010Z,2.10
2018-05-10T04:17:31.753Z,1.17
2018-05-10T04:20:02.337Z,2.53
2018-05-10T04:22:32.226Z,3.23
2018-05-10T04:25:02.019Z,2.53
2018-05-10T04:27:31.965Z,1.10
2018-05-10T04:30:01.805Z,2.07
2018-05-10T04:32:31.651Z,1.00
2018-05-10T04:35:01.726Z,2.87
2018-05-10T04:37:31.614Z,1.73
2018-05-10T04:40:01.379Z,3.07
2018-05-10T04:42:32.363Z,2.20
2018-05-10T04:45:02.343Z,2.30
2018-05-10T04:47:32.992Z,3.57
2018-05-10T04:50:03.462Z,2.67
2018-05-10T04:52:33.503Z,3.10
2018-05-10T04:55:03.200Z,4.37
2018-05-10T04:57:35.575Z,2.30
2018-05-10T05:00:06.947Z,2.70
2018-05-10T05:02:38.338Z,5.13
2018-05-10T05:05:08.114Z,3.10
2018-05-10T05:07:37.929Z,4.03
2018-05-10T05:10:08.458Z,2.50
2018-05-10T05:12:39.071Z,2.90
2018-05-10T05:15:08.758Z,2.83
2018-05-10T05:17:38.529Z,4.27
2018-05-10T05:20:08.296Z,4.43
2018-05-10T05:22:38.076Z,2.60
2018-05-10T05:25:07.845Z,3.17
2018-05-10T05:27:37.545Z,2.30
2018-05-10T05:30:07.156Z,3.53
2018-05-10T05:32:36.855Z,2.40
2018-05-10T05:35:06.527Z,3.13
2018-05-10T05:37:36.240Z,3.80
2018-05-10T05:40:06.045Z,2.47
2018-05-10T05:42:35.722Z,2.70
2018-05-10T05:45:06.239Z,2.93
2018-05-10T05:47:35.926Z,2.23
2018-05-10T05:50:05.680Z,3.07
2018-05-10T05:55:09.410Z,2.73
2018-05-10T05:57:39.956Z,1.57
2018-05-10T06:00:09.546Z,3.70
2018-05-10T06:02:39.315Z,6.07
2018-05-10T06:05:08.899Z,2.03
2018-05-10T06:07:38.550Z,3.90
2018-05-10T06:10:08.209Z,3.23
2018-05-10T06:12:38.110Z,4.70
2018-05-10T06:15:07.751Z,4.00
2018-05-10T06:17:37.508Z,2.90
2018-05-10T06:20:07.161Z,3.73
2018-05-10T06:22:36.911Z,2.60
2018-05-10T06:25:06.584Z,2.50
2018-05-10T06:27:36.304Z,2.73
2018-05-10T06:30:05.980Z,1.97
2018-05-10T06:32:35.827Z,3.20
2018-05-10T06:35:06.454Z,2.23
2018-05-10T06:37:36.217Z,1.47
2018-05-10T06:40:05.975Z,6.10
2018-05-10T06:42:35.825Z,4.07
2018-05-10T06:45:05.624Z,3.87
2018-05-10T06:47:35.380Z,4.87
2018-05-10T06:50:05.117Z,5.07
2018-05-10T06:52:34.946Z,6.57
2018-05-10T06:55:04.756Z,2.67
2018-05-10T06:57:34.457Z,10.10
2018-05-10T07:00:04.160Z,4.33
2018-05-10T07:02:34.116Z,3.67
2018-05-10T07:05:05.519Z,5.77
2018-05-10T07:07:35.242Z,4.87
2018-05-10T07:10:04.992Z,5.13
2018-05-10T07:12:34.703Z,3.73
2018-05-10T07:15:05.333Z,2.23
2018-05-10T07:17:36.088Z,4.53
2018-05-10T07:20:05.942Z,1.43
2018-05-10T07:22:35.699Z,5.10
2018-05-10T07:25:05.406Z,3.03
2018-05-10T07:27:35.307Z,3.27
2018-05-10T07:30:05.078Z,3.33
2018-05-10T07:32:34.851Z,3.90
2018-05-10T07:35:05.395Z,1.93
2018-05-10T07:37:35.147Z,5.87
2018-05-10T07:40:04.887Z,3.10
2018-05-10T07:42:34.656Z,3.67
2018-05-10T07:45:04.408Z,4.13
2018-05-10T07:47:34.168Z,3.27
2018-05-10T07:50:03.927Z,5.93
2018-05-10T07:52:33.666Z,3.70
2018-05-10T07:55:04.101Z,6.10
2018-05-10T07:57:33.899Z,6.33
2018-05-10T08:00:03.634Z,5.27
2018-05-10T08:02:33.330Z,2.77
2018-05-10T08:05:03.085Z,2.83
2018-05-10T08:07:32.893Z,3.77
2018-05-10T08:10:02.707Z,4.73
2018-05-10T08:12:32.506Z,5.07
2018-05-10T08:15:02.291Z,4.80
2018-05-10T08:17:32.122Z,5.93
2018-05-10T08:20:01.851Z,4.90
2018-05-10T08:22:31.662Z,4.67
2018-05-10T08:25:01.427Z,4.70
2018-05-10T08:27:42.241Z,3.57
2018-05-10T08:30:11.973Z,5.13
2018-05-10T08:32:41.945Z,3.83
2018-05-10T08:42:13.612Z,5.03
2018-05-10T08:44:43.219Z,5.47
2018-05-10T08:47:12.892Z,4.90
2018-05-10T08:49:43.235Z,5.20
2018-05-10T08:52:12.911Z,6.03
2018-05-10T08:54:42.575Z,3.53
2018-05-10T08:57:12.227Z,3.57
2018-05-10T08:59:41.829Z,5.60
2018-05-10T09:02:11.527Z,4.57
2018-05-10T09:04:41.211Z,7.20
2018-05-10T09:07:10.763Z,4.27
2018-05-10T09:09:40.373Z,5.13
2018-05-10T09:12:09.981Z,6.23
2018-05-10T09:14:39.641Z,5.47
2018-05-10T09:17:09.228Z,4.43
2018-05-10T09:19:38.876Z,5.93
2018-05-10T09:22:09.381Z,5.33
2018-05-10T09:24:39.152Z,6.87
2018-05-10T09:27:08.899Z,4.83
2018-05-10T09:29:38.604Z,4.80
2018-05-10T09:32:08.314Z,6.93
2018-05-10T09:34:38.096Z,3.90
2018-05-10T09:37:07.819Z,4.03
2018-05-10T09:39:38.274Z,6.20
2018-05-10T09:42:08.031Z,5.60
2018-05-10T09:44:37.777Z,4.80
2018-05-10T09:47:08.293Z,7.07
2018-05-10T09:49:38.027Z,9.00
2018-05-10T09:52:07.782Z,4.47
2018-05-10T09:54:37.565Z,3.77
2018-05-10T09:57:07.312Z,5.67
2018-05-10T09:59:37.127Z,6.40
2018-05-10T10:02:06.876Z,6.40
2018-05-10T10:04:37.361Z,5.63
2018-05-10T10:07:07.087Z,4.03
2018-05-10T10:09:37.613Z,3.30
2018-05-10T10:12:08.126Z,5.93
2018-05-10T10:14:37.932Z,5.10
2018-05-10T10:17:07.805Z,4.63
2018-05-10T10:19:37.679Z,4.73
2018-05-10T10:22:07.385Z,5.37
2018-05-10T10:24:37.315Z,5.17
2018-05-10T10:27:07.080Z,2.90
2018-05-10T10:29:36.919Z,3.90
2018-05-10T10:32:06.676Z,7.33
2018-05-10T10:34:36.439Z,5.37
2018-05-10T10:37:06.233Z,9.13
2018-05-10T10:39:35.999Z,7.30
2018-05-10T10:42:05.809Z,5.90
2018-05-10T10:44:35.591Z,7.33
2018-05-10T10:47:05.301Z,7.20
2018-05-10T10:49:34.962Z,4.03
2018-05-10T10:52:04.672Z,7.63
2018-05-10T10:54:34.387Z,2.20
2018-05-10T10:57:04.219Z,7.93
2018-05-10T10:59:33.915Z,6.13
2018-05-10T11:02:03.651Z,3.80
2018-05-10T11:04:33.363Z,5.60
2018-05-10T11:07:03.070Z,4.53
2018-05-10T11:09:32.846Z,6.83
2018-05-10T11:12:02.554Z,6.77
2018-05-10T11:14:32.286Z,7.97
2018-05-10T11:17:02.033Z,6.70
2018-05-10T11:19:31.961Z,4.07
2018-05-10T11:22:02.503Z,4.50
2018-05-10T11:24:32.337Z,4.97
2018-05-10T11:27:02.059Z,5.10
2018-05-10T11:29:32.967Z,7.67
2018-05-10T11:32:03.500Z,7.47
2018-05-10T11:34:34.156Z,3.13
2018-05-10T11:37:03.873Z,4.07
2018-05-10T11:39:33.605Z,6.77
2018-05-10T11:42:03.379Z,6.47
2018-05-10T11:44:33.272Z,6.77
2018-05-10T11:47:03.176Z,5.93
2018-05-10T11:49:32.966Z,5.87
2018-05-10T11:52:02.749Z,5.20
2018-05-10T11:54:32.497Z,10.13
2018-05-10T11:57:02.454Z,5.40
2018-05-10T11:59:32.230Z,3.60
2018-05-10T12:02:02.002Z,5.53
2018-05-10T12:04:31.741Z,5.80
2018-05-10T12:07:01.549Z,5.37
2018-05-10T12:09:31.343Z,6.60
2018-05-10T12:12:01.046Z,3.50
2018-05-10T12:14:30.734Z,5.50
2018-05-10T12:17:00.473Z,4.53
2018-05-10T12:19:30.227Z,10.20
2018-05-10T12:21:59.991Z,7.23
2018-05-10T12:24:29.650Z,5.50
2018-05-10T12:26:59.365Z,5.03
2018-05-10T12:29:29.898Z,6.70
2018-05-10T12:31:59.699Z,5.80
2018-05-10T12:34:29.493Z,5.20
2018-05-10T12:36:59.279Z,6.40
2018-05-10T12:39:28.997Z,6.47
2018-05-10T12:41:58.850Z,6.37
2018-05-10T12:44:29.392Z,7.10
2018-05-10T12:46:59.915Z,6.03
2018-05-10T12:49:30.395Z,7.80
2018-05-10T12:52:00.121Z,7.27
2018-05-10T12:54:29.903Z,7.80
2018-05-10T12:56:59.626Z,5.40
2018-05-10T12:59:29.423Z,6.90
2018-05-10T13:01:59.969Z,7.23
2018-05-10T13:04:29.725Z,8.37
2018-05-10T13:07:00.323Z,4.50
2018-05-10T13:09:30.063Z,5.90
2018-05-10T13:11:59.797Z,4.80
2018-05-10T13:14:29.547Z,9.63
2018-05-10T13:16:59.280Z,9.27
2018-05-10T13:19:29.485Z,6.70
2018-05-10T13:21:59.280Z,6.83
2018-05-10T13:24:29.069Z,6.33
2018-05-10T13:26:58.817Z,5.47
2018-05-10T13:29:28.496Z,5.53
2018-05-10T13:31:58.208Z,6.67
2018-05-10T13:34:27.984Z,8.80
2018-05-10T13:36:57.748Z,7.47
2018-05-10T13:39:27.438Z,9.00
2018-05-10T13:41:57.264Z,5.40
2018-05-10T13:44:27.045Z,7.73
2018-05-10T13:46:56.884Z,7.20
2018-05-10T13:49:26.723Z,7.63
2018-05-10T13:51:56.634Z,6.30
2018-05-10T13:54:26.405Z,3.97
2018-05-10T13:56:56.140Z,7.27
2018-05-10T13:59:25.855Z,5.10
2018-05-10T14:01:55.785Z,7.50
2018-05-10T14:04:25.727Z,6.50
2018-05-10T14:06:55.561Z,9.20
2018-05-10T14:09:26.006Z,6.90
2018-05-10T14:11:55.788Z,5.50
2018-05-10T14:14:25.549Z,6.63
2018-05-10T14:16:55.294Z,6.93
2018-05-10T14:19:25.076Z,6.90
2018-05-10T14:21:54.959Z,8.57
2018-05-10T14:24:24.732Z,8.97
2018-05-10T14:26:54.555Z,7.73
2018-05-10T14:29:24.370Z,7.43
2018-05-10T14:31:54.901Z,4.50
2018-05-10T14:34:24.600Z,4.83
2018-05-10T14:36:54.308Z,11.57
2018-05-10T14:39:24.039Z,5.40
2018-05-10T14:41:54.075Z,8.97
2018-05-10T14:44:24.608Z,7.07
2018-05-10T14:46:54.272Z,6.00
2018-05-10T14:49:24.129Z,5.30
2018-05-10T14:51:53.947Z,7.50
2018-05-10T14:54:23.787Z,5.67
2018-05-10T14:56:53.620Z,8.17
2018-05-10T14:59:23.420Z,4.73
2018-05-10T15:01:53.275Z,7.67
2018-05-10T15:04:23.923Z,6.23
2018-05-10T15:06:53.661Z,6.10
2018-05-10T15:09:23.363Z,7.80
2018-05-10T15:11:53.038Z,7.10
2018-05-10T15:14:23.523Z,7.67
2018-05-10T15:16:53.242Z,7.87
2018-05-10T15:19:22.978Z,10.87
2018-05-10T15:21:52.772Z,10.13
2018-05-10T15:24:22.546Z,8.43
2018-05-10T15:26:52.264Z,4.47
2018-05-10T15:29:21.984Z,7.20
2018-05-10T15:31:51.794Z,6.27
2018-05-10T15:34:21.571Z,4.43
2018-05-10T15:36:52.077Z,12.17
2018-05-10T15:39:21.890Z,7.30
2018-05-10T15:41:52.455Z,7.37
2018-05-10T15:44:22.188Z,8.50
2018-05-10T15:46:52.003Z,8.83
2018-05-10T15:49:21.768Z,8.97
2018-05-10T15:51:52.326Z,7.60
2018-05-10T15:54:22.079Z,6.17
2018-05-10T15:56:51.776Z,7.70
2018-05-10T15:59:21.587Z,7.67
2018-05-10T16:01:51.771Z,8.03
2018-05-10T16:04:21.543Z,8.53
2018-05-10T16:06:51.282Z,3.53
2018-05-10T16:09:21.009Z,8.60
2018-05-10T16:11:50.746Z,6.73
2018-05-10T16:14:20.524Z,6.03
2018-05-10T16:16:50.211Z,5.37
2018-05-10T16:19:19.961Z,3.77
2018-05-10T16:21:49.793Z,3.70
2018-05-10T16:24:19.750Z,5.10
2018-05-10T16:26:50.267Z,6.30
2018-05-10T16:29:20.745Z,4.20
2018-05-10T16:31:50.491Z,6.93
2018-05-10T16:34:20.219Z,4.60
2018-05-10T16:36:49.914Z,4.13
2018-05-10T16:39:19.690Z,6.83
2018-05-10T16:41:49.497Z,4.57
2018-05-10T16:44:19.246Z,5.43
2018-05-10T16:46:49.117Z,5.83
2018-05-10T16:49:18.905Z,6.70
2018-05-10T16:51:48.665Z,2.67
2018-05-10T16:54:18.360Z,5.57
2018-05-10T16:56:48.035Z,3.67
2018-05-10T16:59:17.948Z,5.17
2018-05-10T17:01:48.405Z,6.03
2018-05-10T17:04:18.131Z,2.50
2018-05-10T17:06:47.894Z,2.50
2018-05-10T17:09:18.436Z,2.30
2018-05-10T17:11:48.974Z,1.87
2018-05-10T17:14:18.748Z,2.20
2018-05-10T17:16:48.430Z,1.67
2018-05-10T17:19:18.175Z,1.20
2018-05-10T17:21:48.111Z,2.83
2018-05-10T17:24:18.227Z,2.73
2018-05-10T17:26:48.767Z,4.87
2018-05-10T17:29:18.525Z,1.67
2018-05-10T17:31:48.328Z,3.47
2018-05-10T17:34:18.071Z,4.43
2018-05-10T17:36:47.783Z,3.47
2018-05-10T17:39:17.612Z,1.43
2018-05-10T17:41:48.246Z,3.30
2018-05-10T17:44:18.126Z,2.77
2018-05-10T17:46:47.923Z,2.23
2018-05-10T17:49:17.740Z,1.37
2018-05-10T17:51:47.458Z,1.87
2018-05-10T17:54:17.186Z,1.83
2018-05-10T17:56:46.999Z,2.10
2018-05-10T17:59:16.687Z,1.57
2018-05-10T18:01:46.433Z,1.77
2018-05-10T18:04:16.410Z,2.23
2018-05-10T18:06:46.125Z,3.30
2018-05-10T18:09:15.872Z,2.60
2018-05-10T18:11:45.612Z,1.43
2018-05-10T18:14:15.303Z,1.93
2018-05-10T18:16:45.063Z,2.17
2018-05-10T18:19:14.739Z,1.77
2018-05-10T18:21:44.484Z,2.73
2018-05-10T18:24:14.205Z,2.80
2018-05-10T18:26:43.932Z,1.13
2018-05-10T18:29:13.668Z,1.97
2018-05-10T18:31:44.230Z,1.30
2018-05-10T18:34:13.950Z,1.37
2018-05-10T18:36:43.714Z,0.70
2018-05-10T18:39:14.174Z,1.13
2018-05-10T18:41:43.917Z,1.03
2018-05-10T18:44:13.659Z,1.23
2018-05-10T18:46:44.151Z,2.03
2018-05-10T18:49:14.550Z,3.03
2018-05-10T18:51:44.284Z,2.33
2018-05-10T18:54:14.111Z,2.40
2018-05-10T18:56:43.810Z,1.13
2018-05-10T18:59:13.504Z,1.70
2018-05-10T19:01:43.151Z,1.57
2018-05-10T19:04:13.028Z,2.77
2018-05-10T19:06:42.752Z,1.73
2018-05-10T19:09:12.591Z,1.80
2018-05-10T19:11:42.340Z,0.60
2018-05-10T19:14:12.044Z,2.10
2018-05-10T19:16:42.555Z,3.47
2018-05-10T19:19:12.340Z,2.13
2018-05-10T19:21:42.132Z,1.73
2018-05-10T19:24:11.872Z,1.93
2018-05-10T19:26:41.677Z,0.93
2018-05-10T19:29:11.398Z,0.90
2018-05-10T19:31:41.226Z,1.77
2018-05-10T19:34:10.974Z,1.27
2018-05-10T19:36:41.556Z,2.00
2018-05-10T19:39:11.274Z,1.10
2018-05-10T19:41:41.057Z,1.57
2018-05-10T19:44:10.774Z,1.30
2018-05-10T19:46:40.568Z,1.40
2018-05-10T19:49:10.511Z,0.80
2018-05-10T19:51:40.319Z,1.33
2018-05-10T19:54:10.041Z,1.27
2018-05-10T19:56:39.758Z,2.47
2018-05-10T19:59:09.582Z,2.43
2018-05-10T20:01:39.305Z,1.77
2018-05-10T20:04:09.003Z,1.33
2018-05-10T20:06:39.511Z,2.77
2018-05-10T20:09:09.276Z,1.57
2018-05-10T20:11:39.271Z,1.30
2018-05-10T20:14:09.032Z,1.50
2018-05-10T20:16:38.897Z,2.47
2018-05-10T20:19:08.667Z,3.50
2018-05-10T20:21:38.464Z,1.87
2018-05-10T20:24:08.337Z,1.90
2018-05-10T20:26:39.032Z,5.00
2018-05-10T20:29:08.804Z,1.67
2018-05-10T20:31:38.596Z,1.30
2018-05-10T20:34:08.291Z,1.60
2018-05-10T20:36:38.101Z,3.53
2018-05-10T20:39:08.671Z,1.10
2018-05-10T20:41:39.205Z,4.00
2018-05-10T20:44:09.151Z,1.57
2018-05-10T20:49:28.961Z,1.63
2018-05-10T20:51:58.693Z,1.83
2018-05-10T20:54:28.453Z,2.30
2018-05-10T20:56:58.226Z,2.13
2018-05-10T20:59:27.967Z,1.67
2018-05-10T21:01:57.783Z,2.67
2018-05-10T21:04:27.500Z,1.87
2018-05-10T21:06:57.195Z,2.37
2018-05-10T21:09:26.974Z,2.37
2018-05-10T21:11:57.496Z,2.70
2018-05-10T21:14:28.017Z,2.60
2018-05-10T21:16:58.543Z,3.60
2018-05-10T21:19:28.276Z,4.70
2018-05-10T21:21:58.027Z,3.27
2018-05-10T21:24:27.821Z,5.40
2018-05-10T21:26:57.620Z,5.90
2018-05-10T21:29:27.329Z,4.83
2018-05-10T21:31:57.077Z,2.67
2018-05-10T21:34:26.795Z,3.33
2018-05-10T21:36:56.614Z,3.43
2018-05-10T21:39:26.393Z,3.63
2018-05-10T21:41:56.132Z,2.73
2018-05-10T21:44:25.937Z,2.53
2018-05-10T21:46:55.675Z,3.37
2018-05-10T21:49:37.363Z,3.87
2018-05-10T21:52:07.936Z,5.63
2018-05-10T21:54:37.718Z,1.97
2018-05-10T21:57:07.521Z,4.07
2018-05-10T21:59:37.226Z,4.10
2018-05-10T22:02:07.115Z,4.03
2018-05-10T22:04:37.072Z,1.90
2018-05-10T22:07:07.041Z,2.00
2018-05-10T22:09:37.015Z,1.07
2018-05-10T22:12:06.739Z,1.83
2018-05-10T22:14:36.490Z,0.77
2018-05-10T22:17:06.235Z,1.27
2018-05-10T22:19:35.977Z,1.37
2018-05-10T22:22:05.721Z,2.43
2018-05-10T22:24:35.553Z,1.43
2018-05-10T22:27:05.390Z,2.20
2018-05-10T22:29:35.152Z,1.33
2018-05-10T22:32:04.818Z,3.40
2018-05-10T22:34:34.559Z,2.00
2018-05-10T22:37:04.223Z,3.83
2018-05-10T22:39:34.736Z,1.87
2018-05-10T22:42:04.561Z,1.20
2018-05-10T22:44:35.183Z,2.00
2018-05-10T22:47:07.558Z,1.50
2018-05-10T22:49:37.220Z,2.40
2018-05-10T22:52:06.899Z,0.60
2018-05-10T22:54:36.596Z,0.80
2018-05-10T22:57:06.339Z,0.60
2018-05-10T22:59:36.967Z,2.70
2018-05-10T23:02:06.733Z,1.90
2018-05-10T23:04:36.456Z,0.60
2018-05-10T23:07:06.168Z,0.93
2018-05-10T23:09:35.958Z,5.10
2018-05-10T23:12:05.667Z,2.03
2018-05-10T23:14:35.354Z,1.97
2018-05-10T23:17:05.092Z,0.93
2018-05-10T23:19:34.753Z,1.67
2018-05-10T23:22:04.440Z,2.43
2018-05-10T23:24:34.131Z,2.27
2018-05-10T23:27:03.835Z,2.00
2018-05-10T23:29:33.600Z,2.00
2018-05-10T23:32:03.331Z,0.40
2018-05-10T23:34:33.088Z,1.37
2018-05-10T23:37:02.833Z,0.70
2018-05-10T23:39:32.543Z,0.60
2018-05-10T23:42:02.251Z,0.43
2018-05-10T23:44:31.953Z,0.27
2018-05-10T23:47:01.616Z,1.77
2018-05-10T23:49:31.326Z,0.37
2018-05-10T23:52:00.992Z,1.27
2018-05-10T23:54:30.829Z,1.13
2018-05-10T23:57:00.489Z,0.43
2018-05-10T23:59:30.232Z,2.20
